createdAt,value
2023-02-12T00:02:25.492Z,7.18
2023-02-12T00:06:28.924Z,7.25
2023-02-12T00:10:31.952Z,7.29
2023-02-12T00:14:38.896Z,7.31
2023-02-12T00:18:42.509Z,7.33
2023-02-12T00:22:46.045Z,7.34
2023-02-12T00:26:51.142Z,7.35
2023-02-12T00:30:55.733Z,7.35
2023-02-12T00:34:58.937Z,7.33
2023-02-12T00:39:02.669Z,7.31
2023-02-12T00:43:06.383Z,7.28
2023-02-12T00:47:10.754Z,7.27
2023-02-12T00:51:14.188Z,7.23
2023-02-12T00:55:17.505Z,7.20
2023-02-12T00:59:21.136Z,7.18
2023-02-12T01:03:25.826Z,7.16
2023-02-12T01:07:29.064Z,7.11
2023-02-12T01:11:32.183Z,7.07
2023-02-12T01:15:35.980Z,7.01
2023-02-12T01:19:40.819Z,6.99
2023-02-12T01:23:44.689Z,6.97
2023-02-12T01:27:48.189Z,6.95
2023-02-12T01:31:51.781Z,6.98
2023-02-12T01:35:57.526Z,6.98
2023-02-12T01:40:00.712Z,6.98
2023-02-12T01:44:09.920Z,6.99
2023-02-12T01:48:14.740Z,6.99
2023-02-12T01:52:25.293Z,6.95
2023-02-12T01:56:29.580Z,6.98
2023-02-12T02:00:33.283Z,7.01
2023-02-12T02:04:45.175Z,7.03
2023-02-12T02:08:52.680Z,7.02
2023-02-12T02:13:13.698Z,7.02
2023-02-12T02:17:36.069Z,7.03
2023-02-12T02:22:18.898Z,6.98
2023-02-12T02:26:46.385Z,6.96
2023-02-12T02:30:57.470Z,6.96
2023-02-12T02:35:06.315Z,6.93
2023-02-12T02:39:17.935Z,6.88
2023-02-12T02:43:27.149Z,6.86
2023-02-12T02:47:39.507Z,6.83
2023-02-12T02:51:46.122Z,6.80
2023-02-12T02:55:54.421Z,6.77
2023-02-12T03:00:06.756Z,6.75
2023-02-12T03:04:18.090Z,6.73
2023-02-12T03:08:25.416Z,6.71
2023-02-12T03:12:33.603Z,6.68
2023-02-12T03:16:41.669Z,6.67
2023-02-12T03:20:53.136Z,6.64
2023-02-12T03:25:00.588Z,6.60
2023-02-12T03:29:03.826Z,6.58
2023-02-12T03:33:18.809Z,6.54
2023-02-12T03:37:32.186Z,6.53
2023-02-12T03:41:43.382Z,6.54
2023-02-12T03:45:51.872Z,6.48
2023-02-12T03:50:02.716Z,6.49
2023-02-12T03:54:09.430Z,6.50
2023-02-12T03:58:19.835Z,6.50
2023-02-12T04:02:23.298Z,6.49
2023-02-12T04:06:29.385Z,6.50
2023-02-12T04:10:41.775Z,6.50
2023-02-12T04:15:03.221Z,6.50
2023-02-12T04:19:07.140Z,6.48
2023-02-12T04:23:18.940Z,6.49
2023-02-12T04:27:30.880Z,6.48
2023-02-12T04:31:40.598Z,6.51
2023-02-12T04:35:50.072Z,6.51
2023-02-12T04:39:54.922Z,6.52
2023-02-12T04:43:59.984Z,6.53
2023-02-12T04:48:03.689Z,6.53
2023-02-12T04:52:07.352Z,6.53
2023-02-12T04:56:13.205Z,6.54
2023-02-12T05:00:18.851Z,6.56
2023-02-12T05:04:22.413Z,6.57
2023-02-12T05:08:25.274Z,6.57
2023-02-12T05:12:28.920Z,6.59
2023-02-12T05:16:33.328Z,6.62
2023-02-12T05:20:36.575Z,6.65
2023-02-12T05:24:40.636Z,6.68
2023-02-12T05:28:43.843Z,6.69
2023-02-12T05:32:48.437Z,6.73
2023-02-12T05:36:51.700Z,6.73
2023-02-12T05:40:54.771Z,6.75
2023-02-12T05:44:58.153Z,6.74
2023-02-12T05:49:03.114Z,6.74
2023-02-12T05:53:06.416Z,6.73
2023-02-12T05:57:09.971Z,6.70
2023-02-12T06:01:16.421Z,6.69
2023-02-12T06:05:21.074Z,6.67
2023-02-12T06:09:25.026Z,6.67
2023-02-12T06:13:28.431Z,6.68
2023-02-12T06:17:31.878Z,6.71
2023-02-12T06:21:36.729Z,6.72
2023-02-12T06:25:39.938Z,6.72
2023-02-12T06:29:43.665Z,6.73
2023-02-12T06:33:46.850Z,6.74
2023-02-12T06:37:51.463Z,6.75
2023-02-12T06:41:54.781Z,6.78
2023-02-12T06:45:58.492Z,6.80
2023-02-12T06:50:01.559Z,6.85
2023-02-12T06:54:06.399Z,6.88
2023-02-12T06:58:09.799Z,6.90
2023-02-12T07:02:13.892Z,6.94
2023-02-12T07:06:17.837Z,6.95
2023-02-12T07:10:22.621Z,6.97
2023-02-12T07:14:27.055Z,6.98
2023-02-12T07:18:30.456Z,6.98
2023-02-12T07:22:37.080Z,7.01
2023-02-12T07:26:43.025Z,7.03
2023-02-12T07:30:45.921Z,7.03
2023-02-12T07:34:49.180Z,7.07
2023-02-12T07:38:52.635Z,7.13
2023-02-12T07:42:58.453Z,7.18
2023-02-12T07:47:01.540Z,7.23
2023-02-12T07:51:07.463Z,7.29
2023-02-12T07:55:10.790Z,7.29
2023-02-12T07:59:17.936Z,7.38
2023-02-12T08:03:21.103Z,7.44
2023-02-12T08:07:24.433Z,7.49
2023-02-12T08:11:30.058Z,7.54
2023-02-12T08:15:34.861Z,7.59
2023-02-12T08:19:38.097Z,7.64
2023-02-12T08:23:41.299Z,7.68
2023-02-12T08:27:44.662Z,7.73
2023-02-12T08:31:50.938Z,7.79
2023-02-12T08:36:03.352Z,7.84
2023-02-12T08:40:07.096Z,7.88
2023-02-12T08:44:12.154Z,7.93
2023-02-12T08:48:16.837Z,8.02
2023-02-12T08:52:19.976Z,8.07
2023-02-12T08:56:26.481Z,8.15
2023-02-12T09:00:29.619Z,8.22
2023-02-12T09:04:36.262Z,8.32
2023-02-12T09:08:40.613Z,8.38
2023-02-12T09:12:46.263Z,8.43
2023-02-12T09:16:49.624Z,8.50
2023-02-12T09:20:54.165Z,8.55
2023-02-12T09:24:57.492Z,8.60
2023-02-12T09:29:02.748Z,8.66
2023-02-12T09:33:06.144Z,8.78
2023-02-12T09:37:10.512Z,8.90
2023-02-12T09:41:39.753Z,9.05
2023-02-12T09:45:50.365Z,9.17
2023-02-12T09:50:12.780Z,9.30
2023-02-12T09:54:21.066Z,9.41
2023-02-12T09:58:34.496Z,9.50
2023-02-12T10:02:39.288Z,9.58
2023-02-12T10:06:48.590Z,9.70
2023-02-12T10:10:59.949Z,9.82
2023-02-12T10:15:34.161Z,9.95
2023-02-12T10:20:01.478Z,10.04
2023-02-12T10:24:24.710Z,10.12
2023-02-12T10:28:34.588Z,10.16
2023-02-12T10:32:39.326Z,10.21
2023-02-12T10:36:44.885Z,10.27
2023-02-12T10:40:50.647Z,10.31
2023-02-12T10:44:55.561Z,10.37
2023-02-12T10:49:02.082Z,10.40
2023-02-12T10:53:05.127Z,10.44
2023-02-12T10:57:13.867Z,10.51
2023-02-12T11:01:22.309Z,10.57
2023-02-12T11:05:26.932Z,10.68
2023-02-12T11:09:32.734Z,10.74
2023-02-12T11:13:37.631Z,10.87
2023-02-12T11:17:44.642Z,11.00
2023-02-12T11:21:48.334Z,11.16
2023-02-12T11:25:58.685Z,11.36
2023-02-12T11:30:21.904Z,11.57
2023-02-12T11:34:27.050Z,11.74
2023-02-12T11:38:34.636Z,11.94
2023-02-12T11:42:43.843Z,11.97
2023-02-12T11:46:51.077Z,12.11
2023-02-12T11:50:59.403Z,12.20
2023-02-12T11:55:05.871Z,12.23
2023-02-12T11:59:21.053Z,12.22
2023-02-12T12:03:30.243Z,12.21
2023-02-12T12:07:38.612Z,12.25
2023-02-12T12:11:50.964Z,12.23
2023-02-12T12:16:19.243Z,12.21
2023-02-12T12:20:26.971Z,12.15
2023-02-12T12:24:40.103Z,12.14
2023-02-12T12:28:46.063Z,12.12
2023-02-12T12:32:53.737Z,12.05
2023-02-12T12:37:21.842Z,12.01
2023-02-12T12:41:33.786Z,12.02
2023-02-12T12:46:15.117Z,12.04
2023-02-12T12:50:46.686Z,12.09
2023-02-12T12:55:00.099Z,12.15
2023-02-12T12:59:31.704Z,12.25
2023-02-12T13:03:53.065Z,12.34
2023-02-12T13:08:02.946Z,12.41
2023-02-12T13:12:27.299Z,12.49
2023-02-12T13:16:36.882Z,12.57
2023-02-12T13:20:47.887Z,12.62
2023-02-12T13:24:59.485Z,12.69
2023-02-12T13:29:07.808Z,12.73
2023-02-12T13:33:18.641Z,12.75
2023-02-12T13:37:29.562Z,12.76
2023-02-12T13:41:33.667Z,12.76
2023-02-12T13:45:45.605Z,12.79
2023-02-12T13:49:56.478Z,12.81
2023-02-12T13:54:12.928Z,12.84
2023-02-12T13:58:50.429Z,12.83
2023-02-12T14:02:54.249Z,12.82
2023-02-12T14:07:02.219Z,12.82
2023-02-12T14:11:08.804Z,12.83
2023-02-12T14:15:27.578Z,12.85
2023-02-12T14:19:43.103Z,12.86
2023-02-12T14:23:50.827Z,12.86
2023-02-12T14:27:56.455Z,12.85
2023-02-12T14:31:59.755Z,12.87
2023-02-12T14:36:20.146Z,12.91
2023-02-12T14:40:49.315Z,12.93
2023-02-12T14:44:58.182Z,12.93
2023-02-12T14:49:06.993Z,12.87
2023-02-12T14:53:27.510Z,12.80
2023-02-12T14:57:34.924Z,12.72
2023-02-12T15:01:39.450Z,12.63
2023-02-12T15:05:45.025Z,12.59
2023-02-12T15:09:53.063Z,12.57
2023-02-12T15:14:02.469Z,12.59
2023-02-12T15:18:13.727Z,12.62
2023-02-12T15:22:23.740Z,12.64
2023-02-12T15:26:28.975Z,12.61
2023-02-12T15:30:36.838Z,12.51
2023-02-12T15:34:42.368Z,12.35
2023-02-12T15:38:46.196Z,12.14
2023-02-12T15:42:55.291Z,11.89
2023-02-12T15:47:04.232Z,11.63
2023-02-12T15:51:15.636Z,11.37
2023-02-12T15:55:21.785Z,11.09
2023-02-12T15:59:29.253Z,10.81
2023-02-12T16:03:36.474Z,10.55
2023-02-12T16:07:39.939Z,10.29
2023-02-12T16:11:45.904Z,10.03
2023-02-12T16:16:05.929Z,9.75
2023-02-12T16:20:24.938Z,9.46
2023-02-12T16:24:34.076Z,9.18
2023-02-12T16:28:38.604Z,8.90
2023-02-12T16:32:45.251Z,8.62
2023-02-12T16:36:50.186Z,8.36
2023-02-12T16:41:16.295Z,8.11
2023-02-12T16:45:35.984Z,7.85
2023-02-12T16:49:39.197Z,7.64
2023-02-12T16:53:47.726Z,7.44
2023-02-12T16:57:51.012Z,7.25
2023-02-12T17:02:02.503Z,7.08
2023-02-12T17:06:06.104Z,6.92
2023-02-12T17:10:14.384Z,6.78
2023-02-12T17:14:20.530Z,6.64
2023-02-12T17:18:24.358Z,6.52
2023-02-12T17:22:28.774Z,6.41
2023-02-12T17:26:33.627Z,6.30
2023-02-12T17:30:37.456Z,6.18
2023-02-12T17:34:48.504Z,6.11
2023-02-12T17:44:17.367Z,5.99
2023-02-12T17:48:23.019Z,5.93
2023-02-12T17:52:26.318Z,5.90
2023-02-12T17:56:29.201Z,5.88
2023-02-12T18:00:33.878Z,5.85
2023-02-12T18:04:36.956Z,5.80
2023-02-12T18:08:40.199Z,5.78
2023-02-12T18:12:44.417Z,5.75
2023-02-12T18:16:49.171Z,5.73
2023-02-12T18:20:52.609Z,5.76
2023-02-12T18:24:58.184Z,5.82
2023-02-12T18:29:03.029Z,5.90
2023-02-12T18:33:08.994Z,5.96
2023-02-12T18:37:13.846Z,5.98
2023-02-12T18:41:19.047Z,6.02
2023-02-12T18:45:22.909Z,6.04
2023-02-12T18:49:28.306Z,6.05
2023-02-12T18:53:32.013Z,6.07
2023-02-12T18:57:35.246Z,6.06
2023-02-12T19:01:40.162Z,6.01
2023-02-12T19:05:44.670Z,5.93
2023-02-12T19:09:49.292Z,5.85
2023-02-12T19:13:52.780Z,5.76
2023-02-12T19:17:56.384Z,5.66
2023-02-12T19:22:01.064Z,5.53
2023-02-12T19:26:05.470Z,5.37
2023-02-12T19:30:10.198Z,5.24
2023-02-12T19:34:17.087Z,5.12
2023-02-12T19:38:21.789Z,5.05
2023-02-12T19:42:25.313Z,4.97
2023-02-12T19:46:30.324Z,4.99
2023-02-12T19:50:35.411Z,4.97
2023-02-12T19:54:39.857Z,4.89
2023-02-12T19:58:43.360Z,4.81
2023-02-12T20:02:48.030Z,4.76
2023-02-12T20:06:53.293Z,4.79
2023-02-12T20:10:58.146Z,4.80
2023-02-12T20:15:05.487Z,4.77
2023-02-12T20:19:10.940Z,4.68
2023-02-12T20:23:14.248Z,4.58
2023-02-12T20:27:18.490Z,4.48
2023-02-12T20:31:24.403Z,4.39
2023-02-12T20:35:28.444Z,4.32
2023-02-12T20:39:32.000Z,4.31
2023-02-12T20:43:37.201Z,4.32
2023-02-12T20:47:43.629Z,4.33
2023-02-12T20:51:50.701Z,4.27
2023-02-12T20:55:54.296Z,4.25
2023-02-12T20:59:58.534Z,4.30
2023-02-12T21:04:04.352Z,4.32
2023-02-12T21:08:07.948Z,4.32
2023-02-12T21:12:11.604Z,4.30
2023-02-12T21:16:18.823Z,4.25
2023-02-12T21:20:22.159Z,4.17
2023-02-12T21:24:27.043Z,4.07
2023-02-12T21:28:30.681Z,3.99
2023-02-12T21:32:35.415Z,3.90
2023-02-12T21:36:41.213Z,3.84
2023-02-12T21:40:44.897Z,3.73
2023-02-12T21:44:47.922Z,3.66
2023-02-12T21:48:53.765Z,3.60
2023-02-12T21:52:56.851Z,3.54
2023-02-12T21:57:01.047Z,3.53
2023-02-12T22:01:09.045Z,3.53
2023-02-12T22:05:14.051Z,3.51
2023-02-12T22:09:19.167Z,3.49
2023-02-12T22:13:22.469Z,3.45
2023-02-12T22:17:25.569Z,3.39
2023-02-12T22:21:32.591Z,3.32
2023-02-12T22:25:35.851Z,3.24
2023-02-12T22:29:39.184Z,3.16
2023-02-12T22:33:42.262Z,3.11
2023-02-12T22:37:47.200Z,3.09
2023-02-12T22:41:50.617Z,3.05
2023-02-12T22:45:53.732Z,3.01
2023-02-12T22:49:57.242Z,2.96
2023-02-12T22:54:02.395Z,2.93
2023-02-12T22:58:05.347Z,2.88
2023-02-12T23:02:08.561Z,2.85
2023-02-12T23:06:14.590Z,2.84
2023-02-12T23:10:19.511Z,2.81
2023-02-12T23:14:22.987Z,2.81
2023-02-12T23:18:26.919Z,2.82
2023-02-12T23:22:29.842Z,2.82
2023-02-12T23:26:36.570Z,2.83
2023-02-12T23:30:39.861Z,2.80
2023-02-12T23:34:42.847Z,2.78
2023-02-12T23:38:46.102Z,2.74
2023-02-12T23:42:51.187Z,2.69
2023-02-12T23:46:54.511Z,2.65
2023-02-12T23:50:58.176Z,2.60
2023-02-12T23:55:02.079Z,2.55
2023-02-12T23:59:06.715Z,2.50
